CDT,Max TemperatureF,Mean TemperatureF,Min TemperatureF,Max Dew PointF,MeanDew PointF,Min DewpointF,Max Humidity, Mean Humidity, Min Humidity, Max Sea Level PressureIn, Mean Sea Level PressureIn, Min Sea Level PressureIn, Max VisibilityMiles, Mean VisibilityMiles, Min VisibilityMiles, Max Wind SpeedMPH, Mean Wind SpeedMPH, Max Gust SpeedMPH,PrecipitationIn, CloudCover, Events, WindDirDegrees
2013-10-1,75,60,44,52,43,28,87,51,18,30.02,29.84,29.67,10,10,10,14,10,23,0.00,0,,246
2013-10-2,77,60,42,57,40,30,94,53,18,30.06,29.97,29.84,10,10,2,18,6,29,0.53,1,Rain-Thunderstorm,129
2013-10-3,62,60,57,61,58,55,100,92,82,29.91,29.85,29.79,10,9,2,16,6,21,0.74,7,Rain-Thunderstorm,73
2013-10-4,60,58,57,59,56,55,100,91,88,29.95,29.89,29.80,10,4,1,20,10,26,0.50,8,Rain-Thunderstorm,53
2013-10-5,62,52,42,61,47,39,94,78,51,29.86,29.80,29.76,10,10,10,18,8,24,0.01,4,Rain-Thunderstorm,181
2013-10-6,53,48,44,48,44,41,94,85,62,29.86,29.75,29.70,10,9,2,14,3,22,0.04,7,Rain,302
2013-10-7,66,52,37,46,41,36,100,72,32,30.00,29.94,29.87,10,10,2,8,3,,0.00,0,,251
2013-10-8,75,63,51,46,42,39,76,51,27,29.99,29.94,29.88,10,10,10,23,12,31,0.00,0,,163
2013-10-9,75,64,53,50,47,45,77,57,36,30.08,30.04,29.98,10,10,10,17,10,22,0.00,0,,160
2013-10-10,75,64,53,50,47,43,72,55,34,30.06,29.99,29.90,10,10,10,17,11,23,0.00,0,,150
2013-10-11,73,65,57,61,53,50,88,65,47,29.91,29.78,29.67,10,10,10,29,14,38,0.07,1,Rain-Thunderstorm,149
2013-10-12,60,50,39,52,39,30,88,66,31,30.20,29.97,29.77,10,10,10,22,10,33,0.00,1,,239
2013-10-13,59,46,32,37,33,28,93,68,31,30.44,30.36,30.21,10,10,10,8,3,,0.00,0,,240
2013-10-14,55,46,37,46,37,34,87,63,44,30.40,30.20,29.92,10,10,10,21,8,26,0.28,3,Rain,114
2013-10-15,53,50,46,52,47,45,100,90,82,29.90,29.75,29.69,10,7,2,21,14,29,0.53,8,Rain,186
2013-10-16,50,44,37,45,41,34,93,87,66,29.96,29.91,29.81,10,8,2,14,9,22,0.02,6,,290
2013-10-17,59,46,33,45,37,32,93,76,42,29.91,29.84,29.77,10,10,4,14,4,23,0.00,3,Rain,254
2013-10-18,51,45,39,39,33,27,93,68,38,29.99,29.93,29.87,10,10,5,16,10,21,0.00,4,Rain,278
2013-10-19,46,37,28,39,32,25,93,80,53,29.87,29.78,29.71,10,10,2,20,6,26,0.12,3,Rain,242
2013-10-20,51,40,28,43,33,27,93,80,58,29.89,29.73,29.61,10,10,7,20,6,26,0.00,6,Rain-Snow,233
2013-10-21,39,31,23,34,23,19,93,65,48,29.98,29.95,29.89,10,10,10,21,11,28,0.00,5,,286
2013-10-22,39,30,21,30,25,19,100,79,56,30.02,29.98,29.95,10,10,10,9,3,,0.00,5,,306
2013-10-23,37,32,28,28,25,19,87,70,52,30.10,30.04,30.00,10,10,10,16,6,21,0.00,7,,285
2013-10-24,44,36,26,28,25,21,93,69,46,30.32,30.23,30.10,10,10,10,16,6,22,0.00,6,,300
2013-10-25,57,40,24,36,30,21,93,67,38,30.33,30.12,29.83,10,10,10,23,7,33,0.00,1,,206
2013-10-26,48,39,28,37,29,27,93,64,43,30.10,30.01,29.83,10,10,10,23,12,28,0.00,1,,290
2013-10-27,62,45,28,36,29,25,93,61,30,30.08,29.93,29.80,10,10,10,16,8,22,0.00,0,,209
2013-10-28,44,38,32,30,27,21,81,66,49,30.38,30.30,30.09,10,10,10,15,11,22,0.00,1,,46
2013-10-29,48,40,33,39,31,25,93,69,58,30.36,30.20,30.05,10,10,5,14,8,16,0.02,7,Rain,80
2013-10-30,55,48,41,52,47,39,94,91,87,30.06,29.88,29.65,7,4,1,10,5,,0.06,7,Rain,107
2013-10-31,53,46,39,52,40,36,100,90,81,29.64,29.51,29.42,10,7,0,13,6,17,0.00,8,Fog-Rain,278